sensor_id;sensor_type;location;lat;lon;timestamp;P1;durP1;ratioP1;P2;durP2;ratioP2
32734;SDS011;19112;51.076;3.706;2023-07-20T06:02:52;14.77;;;6.43;;
32734;SDS011;19112;51.076;3.706;2023-07-20T06:09:51;16.60;;;6.60;;
32734;SDS011;19112;51.076;3.706;2023-07-20T06:57:57;5.28;;;2.50;;
32734;SDS011;19112;51.076;3.706;2023-07-20T09:36:48;3.63;;;1.52;;
32734;SDS011;19112;51.076;3.706;2023-07-20T09:39:16;2.80;;;1.30;;
32734;SDS011;19112;51.076;3.706;2023-07-20T09:41:42;1.33;;;1.23;;
32734;SDS011;19112;51.076;3.706;2023-07-20T09:44:08;2.25;;;1.00;;
32734;SDS011;19112;51.076;3.706;2023-07-20T09:50:16;3.50;;;1.98;;
32734;SDS011;19112;51.076;3.706;2023-07-20T09:52:42;2.67;;;1.42;;
32734;SDS011;19112;51.076;3.706;2023-07-20T09:55:09;3.00;;;1.48;;
32734;SDS011;19112;51.076;3.706;2023-07-20T09:57:37;3.10;;;1.48;;
32734;SDS011;19112;51.076;3.706;2023-07-20T10:00:04;1.60;;;1.48;;
32734;SDS011;19112;51.076;3.706;2023-07-20T10:02:43;2.72;;;1.10;;
32734;SDS011;19112;51.076;3.706;2023-07-20T10:05:12;2.83;;;1.60;;
32734;SDS011;19112;51.076;3.706;2023-07-20T10:07:49;1.90;;;0.90;;
32734;SDS011;19112;51.076;3.706;2023-07-20T10:10:17;2.13;;;1.30;;
32734;SDS011;19112;51.076;3.706;2023-07-20T10:12:44;1.42;;;0.95;;
32734;SDS011;19112;51.076;3.706;2023-07-20T10:15:28;3.00;;;1.30;;
32734;SDS011;19112;51.076;3.706;2023-07-20T10:20:42;1.35;;;1.15;;
32734;SDS011;19112;51.076;3.706;2023-07-20T10:23:09;1.50;;;1.20;;
32734;SDS011;19112;51.076;3.706;2023-07-20T10:25:37;6.43;;;1.67;;
32734;SDS011;19112;51.076;3.706;2023-07-20T10:28:05;1.48;;;1.35;;
32734;SDS011;19112;51.076;3.706;2023-07-20T10:30:31;2.85;;;1.70;;
32734;SDS011;19112;51.076;3.706;2023-07-20T10:33:02;5.25;;;1.45;;
32734;SDS011;19112;51.076;3.706;2023-07-20T10:35:29;3.60;;;1.45;;
32734;SDS011;19112;51.076;3.706;2023-07-20T10:38:02;2.20;;;1.27;;
32734;SDS011;19112;51.076;3.706;2023-07-20T10:40:38;3.00;;;1.25;;
32734;SDS011;19112;51.076;3.706;2023-07-20T10:43:05;3.75;;;1.80;;
32734;SDS011;19112;51.076;3.706;2023-07-20T10:45:39;4.18;;;1.58;;
32734;SDS011;19112;51.076;3.706;2023-07-20T10:48:08;2.70;;;1.58;;
32734;SDS011;19112;51.076;3.706;2023-07-20T10:53:44;4.88;;;1.98;;
32734;SDS011;19112;51.076;3.706;2023-07-20T10:56:15;3.28;;;1.52;;
32734;SDS011;19112;51.076;3.706;2023-07-20T10:58:48;2.78;;;1.70;;
32734;SDS011;19112;51.076;3.706;2023-07-20T11:01:16;3.90;;;1.63;;
32734;SDS011;19112;51.076;3.706;2023-07-20T11:03:42;3.00;;;1.70;;
32734;SDS011;19112;51.076;3.706;2023-07-20T11:11:33;4.88;;;1.67;;
32734;SDS011;19112;51.076;3.706;2023-07-20T11:14:02;1.73;;;1.42;;
32734;SDS011;19112;51.076;3.706;2023-07-20T11:19:16;4.20;;;1.93;;
32734;SDS011;19112;51.076;3.706;2023-07-20T11:21:46;5.30;;;1.98;;
32734;SDS011;19112;51.076;3.706;2023-07-20T11:24:19;2.65;;;1.88;;
32734;SDS011;19112;51.076;3.706;2023-07-20T11:26:46;4.80;;;1.70;;
32734;SDS011;19112;51.076;3.706;2023-07-20T11:29:16;8.75;;;2.60;;
32734;SDS011;19112;51.076;3.706;2023-07-20T11:31:45;3.25;;;1.65;;
32734;SDS011;19112;51.076;3.706;2023-07-20T11:34:16;2.17;;;1.33;;
32734;SDS011;19112;51.076;3.706;2023-07-20T11:36:45;2.22;;;1.60;;
32734;SDS011;19112;51.076;3.706;2023-07-20T11:39:15;10.48;;;2.22;;
32734;SDS011;19112;51.076;3.706;2023-07-20T11:41:54;3.15;;;1.30;;
32734;SDS011;19112;51.076;3.706;2023-07-20T11:44:22;3.13;;;1.60;;
32734;SDS011;19112;51.076;3.706;2023-07-20T11:50:16;2.88;;;1.58;;
32734;SDS011;19112;51.076;3.706;2023-07-20T11:52:42;3.53;;;2.13;;
32734;SDS011;19112;51.076;3.706;2023-07-20T11:55:08;2.00;;;1.40;;
32734;SDS011;19112;51.076;3.706;2023-07-20T11:57:35;9.35;;;2.10;;
32734;SDS011;19112;51.076;3.706;2023-07-20T12:00:02;4.20;;;1.80;;
32734;SDS011;19112;51.076;3.706;2023-07-20T12:02:37;3.92;;;2.05;;
32734;SDS011;19112;51.076;3.706;2023-07-20T12:05:06;2.65;;;1.90;;
32734;SDS011;19112;51.076;3.706;2023-07-20T12:07:35;4.68;;;1.77;;
32734;SDS011;19112;51.076;3.706;2023-07-20T12:10:05;7.22;;;2.15;;
32734;SDS011;19112;51.076;3.706;2023-07-20T12:12:43;6.28;;;2.05;;
32734;SDS011;19112;51.076;3.706;2023-07-20T12:15:13;4.55;;;2.17;;
32734;SDS011;19112;51.076;3.706;2023-07-20T12:17:45;4.82;;;2.10;;
32734;SDS011;19112;51.076;3.706;2023-07-20T12:20:11;3.65;;;1.77;;
32734;SDS011;19112;51.076;3.706;2023-07-20T12:22:41;3.63;;;2.03;;
32734;SDS011;19112;51.076;3.706;2023-07-20T12:25:09;13.00;;;4.35;;
32734;SDS011;19112;51.076;3.706;2023-07-20T12:27:38;6.68;;;2.83;;
32734;SDS011;19112;51.076;3.706;2023-07-20T12:30:05;5.40;;;2.33;;
32734;SDS011;19112;51.076;3.706;2023-07-20T12:32:31;4.65;;;2.28;;
32734;SDS011;19112;51.076;3.706;2023-07-20T12:34:58;4.30;;;1.92;;
32734;SDS011;19112;51.076;3.706;2023-07-20T12:37:25;3.78;;;2.15;;
32734;SDS011;19112;51.076;3.706;2023-07-20T12:39:52;5.85;;;2.60;;
32734;SDS011;19112;51.076;3.706;2023-07-20T12:42:18;4.78;;;2.25;;
32734;SDS011;19112;51.076;3.706;2023-07-20T12:44:44;3.35;;;2.47;;
32734;SDS011;19112;51.076;3.706;2023-07-20T12:47:10;5.00;;;2.35;;
32734;SDS011;19112;51.076;3.706;2023-07-20T12:49:35;6.15;;;2.95;;
32734;SDS011;19112;51.076;3.706;2023-07-20T12:52:01;5.68;;;2.88;;
32734;SDS011;19112;51.076;3.706;2023-07-20T12:54:28;3.50;;;2.30;;
32734;SDS011;19112;51.076;3.706;2023-07-20T12:56:54;6.85;;;2.30;;
32734;SDS011;19112;51.076;3.706;2023-07-20T12:59:20;3.42;;;2.15;;
32734;SDS011;19112;51.076;3.706;2023-07-20T13:01:46;2.47;;;1.70;;
32734;SDS011;19112;51.076;3.706;2023-07-20T13:04:12;3.50;;;1.65;;
32734;SDS011;19112;51.076;3.706;2023-07-20T13:06:38;4.18;;;1.83;;
32734;SDS011;19112;51.076;3.706;2023-07-20T13:09:04;4.50;;;1.60;;
32734;SDS011;19112;51.076;3.706;2023-07-20T13:11:30;3.22;;;1.33;;
32734;SDS011;19112;51.076;3.706;2023-07-20T13:13:57;2.83;;;1.52;;
32734;SDS011;19112;51.076;3.706;2023-07-20T13:16:23;2.78;;;1.20;;
32734;SDS011;19112;51.076;3.706;2023-07-20T13:18:48;2.70;;;1.27;;
32734;SDS011;19112;51.076;3.706;2023-07-20T13:21:14;4.53;;;1.30;;
32734;SDS011;19112;51.076;3.706;2023-07-20T13:23:40;5.82;;;1.27;;
32734;SDS011;19112;51.076;3.706;2023-07-20T13:26:06;1.92;;;1.20;;
32734;SDS011;19112;51.076;3.706;2023-07-20T13:28:33;3.83;;;1.65;;
32734;SDS011;19112;51.076;3.706;2023-07-20T13:30:59;4.38;;;1.65;;
32734;SDS011;19112;51.076;3.706;2023-07-20T13:33:25;4.47;;;1.52;;
32734;SDS011;19112;51.076;3.706;2023-07-20T13:35:50;4.68;;;1.40;;
32734;SDS011;19112;51.076;3.706;2023-07-20T13:38:16;3.72;;;1.20;;
32734;SDS011;19112;51.076;3.706;2023-07-20T13:40:43;1.63;;;1.20;;
32734;SDS011;19112;51.076;3.706;2023-07-20T13:43:09;2.08;;;1.48;;
32734;SDS011;19112;51.076;3.706;2023-07-20T13:45:35;2.50;;;1.38;;
32734;SDS011;19112;51.076;3.706;2023-07-20T13:48:01;4.40;;;1.48;;
32734;SDS011;19112;51.076;3.706;2023-07-20T14:30:25;19.48;;;6.55;;
32734;SDS011;19112;51.076;3.706;2023-07-20T14:36:15;14.73;;;7.22;;
32734;SDS011;19112;51.076;3.706;2023-07-20T14:38:46;16.30;;;6.95;;
32734;SDS011;19112;51.076;3.706;2023-07-20T14:41:16;16.20;;;7.32;;
32734;SDS011;19112;51.076;3.706;2023-07-20T14:43:54;13.32;;;6.97;;
32734;SDS011;19112;51.076;3.706;2023-07-20T14:46:30;19.55;;;8.32;;
32734;SDS011;19112;51.076;3.706;2023-07-20T14:49:13;16.30;;;7.60;;
32734;SDS011;19112;51.076;3.706;2023-07-20T14:51:56;16.85;;;8.05;;
32734;SDS011;19112;51.076;3.706;2023-07-20T14:54:37;17.23;;;8.35;;
32734;SDS011;19112;51.076;3.706;2023-07-20T14:57:20;15.25;;;8.02;;
32734;SDS011;19112;51.076;3.706;2023-07-20T14:59:50;17.92;;;7.35;;
